createdAt,value
2017-07-30T00:00:50.309Z,99.99
2017-07-30T00:02:12.779Z,99.99
2017-07-30T00:03:35.291Z,99.99
2017-07-30T00:04:57.220Z,99.99
2017-07-30T00:06:19.387Z,99.99
2017-07-30T00:07:41.521Z,99.99
2017-07-30T00:09:03.050Z,99.99
2017-07-30T00:10:25.501Z,99.99
2017-07-30T00:11:47.715Z,99.99
2017-07-30T00:13:10.130Z,99.99
2017-07-30T00:14:32.309Z,99.99
2017-07-30T00:15:54.437Z,99.99
2017-07-30T00:17:16.602Z,99.99
2017-07-30T00:18:39.033Z,99.99
2017-07-30T00:20:01.221Z,99.99
2017-07-30T00:21:23.168Z,99.99
2017-07-30T00:22:44.369Z,99.99
2017-07-30T00:24:06.702Z,99.99
2017-07-30T00:25:28.680Z,99.99
2017-07-30T00:26:50.585Z,99.99
2017-07-30T00:28:11.890Z,99.99
2017-07-30T00:29:34.679Z,99.99
2017-07-30T00:30:56.520Z,99.99
2017-07-30T00:32:18.351Z,99.99
2017-07-30T00:33:40.179Z,99.99
2017-07-30T00:35:02.307Z,99.99
2017-07-30T00:36:24.240Z,99.99
2017-07-30T00:37:46.082Z,99.99
2017-07-30T00:39:07.961Z,99.99
2017-07-30T00:40:30.893Z,99.99
2017-07-30T00:41:52.460Z,99.99
2017-07-30T00:43:14.620Z,99.99
2017-07-30T00:44:36.796Z,99.99
2017-07-30T00:45:58.930Z,99.99
2017-07-30T00:47:21.205Z,99.99
2017-07-30T00:48:43.117Z,99.99
2017-07-30T00:50:05.291Z,99.99
2017-07-30T00:51:27.500Z,99.99
2017-07-30T00:52:49.747Z,99.99
2017-07-30T00:54:11.941Z,99.99
2017-07-30T00:55:33.796Z,99.99
2017-07-30T00:56:56.199Z,99.99
2017-07-30T00:58:18.101Z,99.99
2017-07-30T00:59:39.989Z,99.99
2017-07-30T01:01:02.148Z,99.99
2017-07-30T01:02:24.291Z,99.99
2017-07-30T01:03:45.820Z,99.99
2017-07-30T01:05:08.303Z,99.99
2017-07-30T01:06:30.442Z,99.99
2017-07-30T01:07:53.037Z,99.99
2017-07-30T01:09:15.207Z,99.99
2017-07-30T01:10:37.060Z,99.99
2017-07-30T01:11:58.970Z,99.99
2017-07-30T01:13:21.050Z,99.99
2017-07-30T01:14:42.670Z,99.99
2017-07-30T01:16:04.819Z,99.99
2017-07-30T01:17:26.642Z,99.99
2017-07-30T01:18:49.079Z,99.99
2017-07-30T01:20:10.911Z,99.99
2017-07-30T01:21:32.751Z,99.99
2017-07-30T01:22:54.907Z,99.99
2017-07-30T01:24:16.978Z,99.99
2017-07-30T01:25:38.570Z,99.99
2017-07-30T01:27:00.719Z,99.99
2017-07-30T01:28:22.909Z,99.99
2017-07-30T01:29:45.409Z,99.99
2017-07-30T01:31:07.270Z,99.99
2017-07-30T01:32:29.462Z,99.99
2017-07-30T01:33:51.596Z,99.99
2017-07-30T01:35:13.724Z,99.99
2017-07-30T01:36:36.020Z,99.99
2017-07-30T01:37:58.159Z,99.99
2017-07-30T01:39:19.702Z,99.99
2017-07-30T01:40:41.496Z,99.99
2017-07-30T01:42:03.330Z,99.99
2017-07-30T01:43:25.560Z,99.99
2017-07-30T01:44:47.481Z,99.99
2017-07-30T01:46:09.697Z,99.99
2017-07-30T01:47:31.229Z,99.99
2017-07-30T01:48:53.459Z,99.99
2017-07-30T01:50:15.320Z,99.99
2017-07-30T01:51:38.041Z,99.99
2017-07-30T01:53:00.201Z,99.99
2017-07-30T01:54:21.757Z,99.99
2017-07-30T01:55:43.268Z,99.99
2017-07-30T01:57:05.693Z,99.99
2017-07-30T01:58:28.170Z,99.99
2017-07-30T01:59:50.000Z,99.99
2017-07-30T02:01:12.517Z,99.99
2017-07-30T02:02:34.701Z,99.99
2017-07-30T02:03:56.637Z,99.99
2017-07-30T02:05:18.509Z,99.99
2017-07-30T02:06:40.016Z,99.99
2017-07-30T02:08:02.200Z,99.99
2017-07-30T02:09:24.390Z,99.99
2017-07-30T02:10:46.530Z,99.99
2017-07-30T02:12:08.680Z,99.99
2017-07-30T02:13:30.832Z,99.99
2017-07-30T02:14:53.019Z,99.99
2017-07-30T02:16:14.986Z,99.99
2017-07-30T02:17:36.796Z,99.99
2017-07-30T02:18:59.290Z,99.99
2017-07-30T02:20:21.744Z,99.99
2017-07-30T02:21:43.717Z,99.99
2017-07-30T02:23:05.640Z,99.99
2017-07-30T02:24:28.464Z,99.99
2017-07-30T02:25:50.930Z,99.99
2017-07-30T02:27:13.179Z,99.99
2017-07-30T02:28:35.010Z,99.99
2017-07-30T02:29:57.426Z,99.99
2017-07-30T02:31:18.955Z,99.99
2017-07-30T02:32:41.417Z,99.99
2017-07-30T02:34:03.658Z,99.99
2017-07-30T02:35:25.844Z,99.99
2017-07-30T02:36:47.424Z,99.99
2017-07-30T02:38:09.593Z,99.99
2017-07-30T02:39:32.066Z,99.99
2017-07-30T02:40:54.540Z,99.99
2017-07-30T02:42:16.068Z,99.99
2017-07-30T02:43:38.232Z,99.99
2017-07-30T02:45:00.118Z,99.99
2017-07-30T02:46:22.533Z,99.99
2017-07-30T02:47:44.365Z,99.99
2017-07-30T02:49:05.881Z,99.99
2017-07-30T02:50:28.390Z,99.99
2017-07-30T02:51:50.154Z,99.99
2017-07-30T02:53:12.610Z,99.99
2017-07-30T02:54:34.847Z,99.99
2017-07-30T02:55:56.462Z,99.99
2017-07-30T02:57:18.889Z,99.99
2017-07-30T02:58:40.720Z,99.99
2017-07-30T03:00:02.329Z,99.99
2017-07-30T03:01:23.875Z,99.99
2017-07-30T03:02:46.349Z,99.99
2017-07-30T03:04:08.278Z,99.99
2017-07-30T03:05:30.480Z,99.99
2017-07-30T03:06:52.340Z,99.99
2017-07-30T03:08:14.723Z,99.99
2017-07-30T03:09:36.691Z,99.99
2017-07-30T03:10:59.157Z,99.99
2017-07-30T03:12:21.083Z,99.99
2017-07-30T03:13:43.180Z,99.99
2017-07-30T03:15:04.690Z,99.99
2017-07-30T03:16:26.851Z,99.99
2017-07-30T03:17:49.316Z,99.99
2017-07-30T03:19:11.705Z,99.99
2017-07-30T03:20:33.619Z,99.99
2017-07-30T03:21:55.216Z,99.99
2017-07-30T03:23:16.422Z,99.99
2017-07-30T03:24:38.831Z,99.99
2017-07-30T03:26:00.338Z,99.99
2017-07-30T03:27:22.499Z,99.99
2017-07-30T03:28:44.318Z,99.99
2017-07-30T03:30:07.045Z,99.99
2017-07-30T03:31:28.640Z,99.99
2017-07-30T03:32:50.528Z,99.99
2017-07-30T03:34:12.359Z,99.99
2017-07-30T03:35:34.751Z,99.99
2017-07-30T03:36:56.600Z,99.99
2017-07-30T03:38:18.426Z,99.99
2017-07-30T03:39:40.572Z,99.99
2017-07-30T03:41:03.521Z,99.99
2017-07-30T03:42:25.354Z,99.99
2017-07-30T03:43:47.200Z,99.99
2017-07-30T03:45:08.830Z,99.99
2017-07-30T03:46:30.638Z,99.99
2017-07-30T03:47:51.831Z,99.99
2017-07-30T03:49:13.983Z,99.99
2017-07-30T03:50:35.518Z,99.99
2017-07-30T03:51:58.070Z,99.99
2017-07-30T03:53:19.958Z,99.99
2017-07-30T03:54:41.790Z,99.99
2017-07-30T03:56:03.952Z,99.99
2017-07-30T03:57:26.710Z,99.99
2017-07-30T03:58:48.900Z,99.99
2017-07-30T04:00:10.728Z,99.99
2017-07-30T04:01:32.997Z,99.99
2017-07-30T04:02:54.883Z,99.99
2017-07-30T04:04:17.030Z,99.99
2017-07-30T04:05:38.659Z,99.99
2017-07-30T04:07:00.171Z,99.99
2017-07-30T04:08:21.931Z,99.99
2017-07-30T04:09:43.758Z,99.99
2017-07-30T04:11:05.935Z,99.99
2017-07-30T04:12:28.600Z,99.99
2017-07-30T04:13:50.520Z,99.99
2017-07-30T04:15:12.372Z,99.99
2017-07-30T04:16:34.560Z,99.99
2017-07-30T04:17:56.169Z,99.99
2017-07-30T04:19:17.722Z,99.99
2017-07-30T04:20:39.563Z,99.99
2017-07-30T04:22:01.731Z,99.99
2017-07-30T04:23:23.881Z,99.99
2017-07-30T04:24:45.991Z,99.99
2017-07-30T04:26:07.821Z,99.99
2017-07-30T04:27:29.033Z,99.99
2017-07-30T04:28:51.176Z,99.99
2017-07-30T04:30:13.943Z,99.99
2017-07-30T04:31:36.389Z,99.99
2017-07-30T04:32:57.897Z,99.99
2017-07-30T04:34:19.758Z,99.99
2017-07-30T04:35:41.903Z,99.99
2017-07-30T04:37:03.421Z,99.99
2017-07-30T04:38:25.952Z,99.99
2017-07-30T04:39:48.086Z,99.99
2017-07-30T04:41:10.191Z,99.99
2017-07-30T04:42:32.025Z,99.99
2017-07-30T04:43:54.616Z,99.99
2017-07-30T04:45:16.761Z,99.99
2017-07-30T04:46:39.475Z,99.99
2017-07-30T04:48:01.715Z,99.99
2017-07-30T04:49:23.261Z,99.99
2017-07-30T04:50:45.431Z,99.99
2017-07-30T04:52:07.620Z,99.99
2017-07-30T04:53:29.146Z,99.99
2017-07-30T04:54:50.969Z,99.99
2017-07-30T04:56:12.481Z,99.99
2017-07-30T04:57:35.051Z,99.99
2017-07-30T04:58:56.952Z,99.99
2017-07-30T05:00:18.776Z,99.99
2017-07-30T05:01:40.361Z,99.99
2017-07-30T05:03:02.454Z,99.99
2017-07-30T05:04:24.121Z,99.99
2017-07-30T05:05:46.281Z,99.99
2017-07-30T05:07:08.201Z,99.99
2017-07-30T05:08:30.661Z,99.99
2017-07-30T05:09:52.222Z,99.99
2017-07-30T05:11:14.368Z,99.99
2017-07-30T05:12:36.645Z,99.99
2017-07-30T05:13:58.780Z,99.99
2017-07-30T05:15:20.667Z,99.99
2017-07-30T05:16:42.515Z,99.99
2017-07-30T05:18:04.064Z,99.99
2017-07-30T05:19:25.947Z,99.99
2017-07-30T05:20:47.475Z,99.99
2017-07-30T05:22:09.750Z,99.99
2017-07-30T05:23:30.693Z,99.99
2017-07-30T05:24:53.166Z,99.99
2017-07-30T05:26:15.324Z,99.99
2017-07-30T05:27:36.599Z,99.99
2017-07-30T05:28:58.761Z,99.99
2017-07-30T05:30:21.060Z,99.99
2017-07-30T05:31:42.581Z,99.99
2017-07-30T05:33:04.720Z,99.99
2017-07-30T05:34:25.930Z,99.99
2017-07-30T05:35:48.501Z,99.99
2017-07-30T05:37:10.341Z,99.99
2017-07-30T05:38:31.883Z,99.99
2017-07-30T05:39:53.432Z,99.99
2017-07-30T05:41:15.248Z,99.99
2017-07-30T05:42:37.110Z,99.99
2017-07-30T05:43:58.948Z,99.99
2017-07-30T05:45:20.790Z,99.99
2017-07-30T05:46:42.883Z,99.99
2017-07-30T05:48:05.432Z,99.99
2017-07-30T05:49:27.729Z,99.99
2017-07-30T05:50:49.576Z,99.99
2017-07-30T05:52:11.340Z,99.99
2017-07-30T05:53:33.183Z,99.99
2017-07-30T05:54:55.643Z,99.99
2017-07-30T05:56:17.266Z,99.99
2017-07-30T05:57:39.210Z,99.99
2017-07-30T05:59:01.052Z,99.99
2017-07-30T06:00:23.221Z,99.99
2017-07-30T06:01:45.501Z,99.99
2017-07-30T06:03:08.094Z,99.99
2017-07-30T06:04:30.270Z,99.99
2017-07-30T06:05:52.548Z,99.99
2017-07-30T06:07:14.709Z,99.99
2017-07-30T06:08:36.541Z,99.99
2017-07-30T06:09:59.028Z,99.99
2017-07-30T06:11:20.566Z,99.99
2017-07-30T06:12:42.401Z,99.99
2017-07-30T06:14:05.147Z,99.99
2017-07-30T06:15:27.000Z,99.99
2017-07-30T06:16:49.178Z,99.99
2017-07-30T06:18:11.263Z,99.99
2017-07-30T06:19:33.041Z,99.99
2017-07-30T06:20:55.307Z,99.99
2017-07-30T06:22:17.151Z,99.99
2017-07-30T06:23:39.298Z,99.99
2017-07-30T06:25:01.763Z,99.99
2017-07-30T06:26:23.985Z,99.99
2017-07-30T06:27:45.844Z,99.99
2017-07-30T06:29:08.026Z,99.99
2017-07-30T06:30:29.473Z,99.99
2017-07-30T06:31:51.327Z,99.99
2017-07-30T06:33:12.227Z,99.99
2017-07-30T06:34:33.759Z,99.99
2017-07-30T06:35:56.480Z,99.99
2017-07-30T06:37:18.010Z,99.99
2017-07-30T06:38:39.904Z,99.99
2017-07-30T06:40:02.051Z,99.99
2017-07-30T06:41:24.511Z,99.99
2017-07-30T06:42:46.368Z,99.99
2017-07-30T06:44:07.893Z,99.99
2017-07-30T06:45:30.049Z,99.99
2017-07-30T06:46:52.214Z,99.99
2017-07-30T06:48:14.675Z,99.99
2017-07-30T06:49:37.181Z,99.99
2017-07-30T06:50:59.026Z,99.99
2017-07-30T06:52:21.260Z,99.99
2017-07-30T06:53:43.211Z,99.99
2017-07-30T06:55:05.369Z,99.99
2017-07-30T06:56:27.647Z,99.99
2017-07-30T06:57:50.592Z,99.99
2017-07-30T06:59:13.060Z,99.99
2017-07-30T07:00:34.663Z,99.99
2017-07-30T07:01:57.148Z,99.99
2017-07-30T07:03:19.270Z,99.65
2017-07-30T07:04:40.809Z,94.4
2017-07-30T07:06:02.641Z,91.77
2017-07-30T07:07:24.487Z,93.32
2017-07-30T07:08:46.277Z,95.57
2017-07-30T07:10:08.428Z,92.31
2017-07-30T07:11:30.940Z,91.33
2017-07-30T07:12:53.147Z,85.66
2017-07-30T07:14:15.009Z,85.88
2017-07-30T07:15:37.489Z,81.82
2017-07-30T07:16:59.690Z,81.25
2017-07-30T07:18:21.231Z,83.07
2017-07-30T07:19:43.428Z,81.13
2017-07-30T07:21:06.050Z,78.8
2017-07-30T07:22:27.901Z,76.43
2017-07-30T07:23:49.748Z,74.77
2017-07-30T07:25:11.252Z,76.15
2017-07-30T07:26:33.101Z,80.99
2017-07-30T07:27:55.277Z,80.78
2017-07-30T07:29:17.528Z,82.64
2017-07-30T07:30:39.711Z,85.55
2017-07-30T07:32:00.991Z,88.54
2017-07-30T07:33:23.519Z,89.81
2017-07-30T07:34:45.683Z,92.11
2017-07-30T07:36:08.482Z,93.53
2017-07-30T07:37:30.016Z,93.19
2017-07-30T07:38:51.856Z,93.38
2017-07-30T07:40:14.338Z,92.99
2017-07-30T07:41:36.945Z,93.67
2017-07-30T07:42:59.101Z,94.7
2017-07-30T07:44:20.719Z,95.67
2017-07-30T07:45:42.623Z,96.89
2017-07-30T07:47:04.780Z,98.54
2017-07-30T07:48:26.992Z,99.65
2017-07-30T07:49:49.268Z,99.46
2017-07-30T07:51:10.493Z,99.99
2017-07-30T07:52:33.039Z,99.99
2017-07-30T07:53:55.225Z,99.22
2017-07-30T07:55:17.091Z,96.89
2017-07-30T07:56:38.959Z,95.62
2017-07-30T07:58:01.221Z,93.92
2017-07-30T07:59:23.419Z,90.51
2017-07-30T08:00:45.409Z,82.28
2017-07-30T08:02:06.942Z,77.86
2017-07-30T08:03:29.732Z,77.39
2017-07-30T08:04:52.030Z,76.6
2017-07-30T08:06:14.506Z,76.21
2017-07-30T08:07:36.787Z,77.87
2017-07-30T08:08:58.892Z,76.11
2017-07-30T08:10:21.061Z,75.19
2017-07-30T08:11:43.239Z,73.99
2017-07-30T08:13:05.107Z,74.02
2017-07-30T08:14:27.928Z,78.7
2017-07-30T08:15:49.798Z,79.02
2017-07-30T08:17:12.286Z,79.97
2017-07-30T08:18:34.518Z,82.05
2017-07-30T08:19:56.670Z,83.69
2017-07-30T08:21:19.209Z,85.99
2017-07-30T08:22:41.197Z,86.63
2017-07-30T08:24:03.371Z,87.08
2017-07-30T08:25:25.190Z,86.79
2017-07-30T08:26:47.105Z,87.7
2017-07-30T08:28:09.325Z,86.73
2017-07-30T08:29:30.857Z,86.63
2017-07-30T08:30:53.071Z,87.76
2017-07-30T08:32:15.234Z,87.95
2017-07-30T08:33:37.399Z,90.35
2017-07-30T08:34:59.250Z,88.89
2017-07-30T08:36:21.449Z,89.33
2017-07-30T08:37:43.669Z,89.43
2017-07-30T08:39:05.530Z,90.54
2017-07-30T08:40:27.441Z,89.67
2017-07-30T08:41:50.182Z,87.91
2017-07-30T08:43:12.070Z,88.15
2017-07-30T08:44:34.553Z,88.19
2017-07-30T08:45:56.851Z,86.87
2017-07-30T08:47:19.568Z,85.6
2017-07-30T08:48:41.146Z,86.48
2017-07-30T08:50:02.998Z,86.19
2017-07-30T08:51:24.850Z,86.38
2017-07-30T08:52:47.269Z,85.7
2017-07-30T08:54:09.446Z,86.54
2017-07-30T08:55:31.301Z,86.05
2017-07-30T08:56:53.598Z,87.6
2017-07-30T08:58:15.734Z,88.05
2017-07-30T08:59:37.970Z,87.76
2017-07-30T09:01:00.140Z,87.66
2017-07-30T09:02:22.329Z,87.46
2017-07-30T09:03:44.738Z,88.4
2017-07-30T09:05:07.239Z,88.54
2017-07-30T09:06:29.404Z,88.15
2017-07-30T09:07:51.893Z,88.48
2017-07-30T09:09:14.111Z,90.34
2017-07-30T09:10:35.344Z,87.51
2017-07-30T09:11:57.828Z,87.51
2017-07-30T09:13:19.689Z,88.19
2017-07-30T09:14:42.251Z,86.29
2017-07-30T09:16:04.480Z,85.36
2017-07-30T09:17:26.339Z,86.68
2017-07-30T09:18:48.625Z,86.23
2017-07-30T09:20:11.299Z,85.64
2017-07-30T09:21:32.840Z,85.41
2017-07-30T09:22:55.003Z,86.24
2017-07-30T09:24:17.239Z,87.51
2017-07-30T09:25:38.704Z,87.95
2017-07-30T09:27:00.862Z,88.79
2017-07-30T09:28:22.710Z,90.35
2017-07-30T09:29:44.927Z,89.86
2017-07-30T09:31:07.369Z,90.3
2017-07-30T09:32:29.270Z,91.04
2017-07-30T09:33:51.746Z,91.62
2017-07-30T09:35:13.918Z,91.33
2017-07-30T09:36:35.770Z,91.62
2017-07-30T09:37:57.721Z,89.29
2017-07-30T09:39:19.949Z,88.75
2017-07-30T09:40:42.121Z,86.7
2017-07-30T09:42:04.582Z,85.91
2017-07-30T09:43:27.092Z,84.54
2017-07-30T09:44:49.693Z,84.44
2017-07-30T09:46:11.879Z,83.7
2017-07-30T09:47:34.321Z,82.82
2017-07-30T09:48:56.855Z,82.82
2017-07-30T09:50:19.543Z,81.65
2017-07-30T09:51:42.066Z,80.04
2017-07-30T09:53:04.820Z,77.15
2017-07-30T09:54:27.040Z,77.15
2017-07-30T09:55:49.555Z,78.47
2017-07-30T09:57:11.446Z,78.77
2017-07-30T09:58:34.221Z,78.67
2017-07-30T09:59:56.407Z,78.63
2017-07-30T10:01:18.641Z,79.74
2017-07-30T10:02:40.831Z,78.47
2017-07-30T10:04:03.150Z,77.79
2017-07-30T10:05:25.336Z,78.28
2017-07-30T10:06:46.891Z,78.47
2017-07-30T10:08:09.459Z,77.85
2017-07-30T10:09:31.645Z,78.53
2017-07-30T10:10:53.909Z,78.05
2017-07-30T10:12:15.780Z,77.91
2017-07-30T10:13:38.290Z,80.6
2017-07-30T10:15:00.773Z,81.38
2017-07-30T10:16:23.328Z,80.99
2017-07-30T10:17:45.810Z,80.8
2017-07-30T10:19:07.654Z,80.8
2017-07-30T10:20:30.417Z,80.21
2017-07-30T10:21:52.605Z,80.36
2017-07-30T10:23:15.092Z,82.12
2017-07-30T10:24:37.278Z,82.41
2017-07-30T10:26:00.096Z,83.78
2017-07-30T10:27:21.949Z,83.73
2017-07-30T10:28:44.064Z,82.53
2017-07-30T10:30:06.654Z,81.81
2017-07-30T10:31:29.107Z,82.39
2017-07-30T10:32:50.970Z,84.43
2017-07-30T10:34:13.150Z,84.43
2017-07-30T10:35:35.025Z,82.72
2017-07-30T10:36:57.200Z,78.28
2017-07-30T10:38:19.402Z,76.53
2017-07-30T10:39:41.576Z,77.56
2017-07-30T10:41:03.520Z,77.43
2017-07-30T10:42:26.016Z,77.37
2017-07-30T10:43:48.200Z,75.85
2017-07-30T10:45:10.374Z,74.49
2017-07-30T10:46:32.529Z,75.98
2017-07-30T10:47:54.324Z,72.96
2017-07-30T10:49:15.871Z,74.1
2017-07-30T10:50:37.721Z,74.29
2017-07-30T10:52:00.271Z,73.55
2017-07-30T10:53:22.728Z,74.04
2017-07-30T10:54:44.899Z,75.04
2017-07-30T10:56:07.407Z,73.72
2017-07-30T10:57:29.666Z,73.17
2017-07-30T10:58:51.920Z,73.46
2017-07-30T11:00:14.080Z,74.24
2017-07-30T11:01:36.330Z,73.75
2017-07-30T11:02:58.640Z,73.56
2017-07-30T11:04:21.368Z,72.97
2017-07-30T11:05:43.860Z,72.74
2017-07-30T11:07:06.145Z,73.72
2017-07-30T11:08:28.461Z,73.13
2017-07-30T11:09:51.240Z,73.19
2017-07-30T11:11:13.514Z,72.57
2017-07-30T11:12:35.382Z,74.13
2017-07-30T11:13:57.925Z,74.29
2017-07-30T11:15:20.409Z,72.96
2017-07-30T11:16:42.800Z,73.22
2017-07-30T11:18:05.453Z,73.61
2017-07-30T11:19:27.629Z,73.32
2017-07-30T11:20:50.440Z,75.01
2017-07-30T11:22:13.022Z,75.4
2017-07-30T11:23:35.530Z,73.74
2017-07-30T11:24:58.052Z,72.57
2017-07-30T11:26:20.277Z,73.16
2017-07-30T11:27:42.917Z,72.86
2017-07-30T11:29:05.419Z,73.39
2017-07-30T11:30:27.600Z,73.49
2017-07-30T11:31:50.341Z,72.12
2017-07-30T11:33:12.571Z,73.68
2017-07-30T11:34:35.100Z,74.13
2017-07-30T11:35:56.992Z,74.85
2017-07-30T11:37:19.440Z,74.72
2017-07-30T11:38:41.281Z,75.24
2017-07-30T11:40:03.144Z,75.34
2017-07-30T11:41:25.023Z,76.02
2017-07-30T11:42:47.524Z,73.72
2017-07-30T11:44:09.718Z,70.7
2017-07-30T11:45:31.634Z,71.96
2017-07-30T11:46:54.321Z,72.02
2017-07-30T11:48:16.111Z,72.51
2017-07-30T11:49:38.287Z,70.86
2017-07-30T11:51:00.252Z,71.67
2017-07-30T11:52:22.448Z,71.67
2017-07-30T11:53:44.609Z,72.12
2017-07-30T11:55:07.267Z,73.39
2017-07-30T11:56:29.769Z,74.21
2017-07-30T11:57:51.930Z,73.27
2017-07-30T11:59:14.787Z,72.09
2017-07-30T12:00:37.007Z,71.51
2017-07-30T12:01:59.553Z,71.74
2017-07-30T12:03:21.807Z,70.76
2017-07-30T12:04:43.982Z,69.89
2017-07-30T12:06:06.191Z,70.96
2017-07-30T12:07:28.719Z,72.78
2017-07-30T12:08:51.329Z,71.8
2017-07-30T12:10:14.160Z,73.17
2017-07-30T12:11:36.659Z,73.23
2017-07-30T12:12:58.519Z,74.17
2017-07-30T12:14:20.390Z,73.58
2017-07-30T12:15:43.260Z,73.88
2017-07-30T12:17:05.762Z,74.46
2017-07-30T12:18:27.940Z,74.37
2017-07-30T12:19:50.125Z,74.37
2017-07-30T12:21:12.606Z,73.29
2017-07-30T12:22:34.799Z,74.66
2017-07-30T12:23:57.003Z,75.53
2017-07-30T12:25:19.191Z,74.66
2017-07-30T12:26:41.979Z,74.98
2017-07-30T12:28:04.684Z,75.18
2017-07-30T12:29:26.595Z,76.64
2017-07-30T12:30:49.116Z,75.67
2017-07-30T12:32:10.929Z,75.92
2017-07-30T12:33:33.559Z,74.98
2017-07-30T12:34:55.755Z,74.85
2017-07-30T12:36:18.061Z,73.58
2017-07-30T12:37:40.501Z,76.12
2017-07-30T12:39:03.030Z,75.67
2017-07-30T12:40:25.230Z,73.91
2017-07-30T12:41:47.893Z,74.11
2017-07-30T12:43:10.660Z,74.89
2017-07-30T12:44:33.233Z,72.68
2017-07-30T12:45:55.807Z,71.9
2017-07-30T12:47:18.297Z,72.35
2017-07-30T12:48:40.779Z,74.98
2017-07-30T12:50:03.279Z,74.5
2017-07-30T12:51:25.873Z,75.24
2017-07-30T12:52:48.384Z,75.43
2017-07-30T12:54:10.508Z,75.53
2017-07-30T12:55:33.103Z,75.26
2017-07-30T12:56:55.591Z,72.28
2017-07-30T12:58:18.099Z,74.19
2017-07-30T12:59:40.568Z,75.75
2017-07-30T13:01:02.787Z,74.1
2017-07-30T13:02:24.727Z,72.64
2017-07-30T13:03:47.470Z,72.54
2017-07-30T13:05:09.675Z,72.67
2017-07-30T13:06:31.539Z,73.8
2017-07-30T13:07:53.082Z,75.1
2017-07-30T13:09:15.305Z,73.68
2017-07-30T13:10:37.800Z,74.27
2017-07-30T13:11:59.671Z,73.68
2017-07-30T13:13:21.641Z,73.39
2017-07-30T13:14:44.139Z,74.07
2017-07-30T13:16:06.951Z,73.88
2017-07-30T13:17:29.144Z,74.13
2017-07-30T13:18:51.638Z,73.35
2017-07-30T13:20:14.180Z,73.12
2017-07-30T13:21:36.956Z,72.05
2017-07-30T13:22:59.206Z,72.31
2017-07-30T13:24:21.092Z,73.51
2017-07-30T13:25:43.278Z,73.51
2017-07-30T13:27:06.039Z,73.45
2017-07-30T13:28:28.220Z,72.09
2017-07-30T13:29:50.718Z,69.88
2017-07-30T13:31:12.280Z,69.88
2017-07-30T13:32:34.773Z,65.75
2017-07-30T13:33:57.254Z,66.73
2017-07-30T13:35:19.523Z,64.75
2017-07-30T13:36:41.737Z,64.45
2017-07-30T13:38:04.628Z,66.63
2017-07-30T13:39:26.939Z,66.31
2017-07-30T13:40:49.420Z,67.18
2017-07-30T13:42:11.015Z,67.38
2017-07-30T13:43:33.145Z,68.55
2017-07-30T13:44:54.724Z,68.06
2017-07-30T13:46:17.229Z,67.8
2017-07-30T13:47:39.109Z,67.83
2017-07-30T13:49:01.913Z,68.52
2017-07-30T13:50:24.109Z,69
2017-07-30T13:51:46.288Z,68.58
2017-07-30T13:53:08.500Z,68.87
2017-07-30T13:54:30.958Z,69.49
2017-07-30T13:55:53.148Z,69.17
2017-07-30T13:57:15.417Z,70.14
2017-07-30T13:58:37.345Z,68.87
2017-07-30T14:00:00.089Z,69.75
2017-07-30T14:01:22.296Z,69.42
2017-07-30T14:02:44.150Z,69.81
2017-07-30T14:04:06.397Z,70.23
2017-07-30T14:05:28.581Z,70.33
2017-07-30T14:06:50.799Z,69.84
2017-07-30T14:08:13.093Z,69.46
2017-07-30T14:09:35.612Z,70.33
2017-07-30T14:10:58.420Z,70.33
2017-07-30T14:12:20.919Z,69.65
2017-07-30T14:13:43.120Z,68.58
2017-07-30T14:15:05.039Z,69.2
2017-07-30T14:16:27.651Z,67.57
2017-07-30T14:17:49.870Z,69.23
2017-07-30T14:19:12.049Z,69.13
2017-07-30T14:20:34.697Z,67.93
2017-07-30T14:21:56.814Z,68.62
2017-07-30T14:23:19.016Z,69
2017-07-30T14:24:41.520Z,70.23
2017-07-30T14:26:03.787Z,69.84
2017-07-30T14:27:26.558Z,69.65
2017-07-30T14:28:48.837Z,70.1
2017-07-30T14:30:11.157Z,69.71
2017-07-30T14:31:33.355Z,70.1
2017-07-30T14:32:55.796Z,71.17
2017-07-30T14:34:18.085Z,72.6
2017-07-30T14:35:40.291Z,73.08
2017-07-30T14:37:02.559Z,73.93
2017-07-30T14:38:24.461Z,74.76
2017-07-30T14:39:46.629Z,74.28
2017-07-30T14:41:09.162Z,73.21
2017-07-30T14:42:31.460Z,72.92
2017-07-30T14:43:53.928Z,71.66
2017-07-30T14:45:16.134Z,71.07
2017-07-30T14:46:38.644Z,71.17
2017-07-30T14:48:01.205Z,71.07
2017-07-30T14:49:23.707Z,70.97
2017-07-30T14:50:46.236Z,72.24
2017-07-30T14:52:08.778Z,72.82
2017-07-30T14:53:31.267Z,73.6
2017-07-30T14:54:53.852Z,71.56
2017-07-30T14:56:15.687Z,72.53
2017-07-30T14:57:37.898Z,72.33
2017-07-30T14:59:00.096Z,71.56
2017-07-30T15:00:22.860Z,72.04
2017-07-30T15:01:45.210Z,72.08
2017-07-30T15:03:06.742Z,72.82
2017-07-30T15:04:28.939Z,71.69
2017-07-30T15:05:51.751Z,72.47
2017-07-30T15:07:14.259Z,71.94
2017-07-30T15:08:36.443Z,72.24
2017-07-30T15:09:58.642Z,72.72
2017-07-30T15:11:21.134Z,76.03
2017-07-30T15:12:43.722Z,79.92
2017-07-30T15:14:05.940Z,82.89
2017-07-30T15:15:27.807Z,83.49
2017-07-30T15:16:50.629Z,83.39
2017-07-30T15:18:12.557Z,83.39
2017-07-30T15:19:34.439Z,83.44
2017-07-30T15:20:56.296Z,83.34
2017-07-30T15:22:18.708Z,81.93
2017-07-30T15:23:41.318Z,82.37
2017-07-30T15:25:03.549Z,81.01
2017-07-30T15:26:26.082Z,81.24
2017-07-30T15:27:48.819Z,82.56
2017-07-30T15:29:11.348Z,81.45
2017-07-30T15:30:34.035Z,82.48
2017-07-30T15:31:56.239Z,83.12
2017-07-30T15:33:18.112Z,83.17
2017-07-30T15:34:39.976Z,83.75
2017-07-30T15:36:02.179Z,84.68
2017-07-30T15:37:24.670Z,84.78
2017-07-30T15:38:47.219Z,84.72
2017-07-30T15:40:09.093Z,83.75
2017-07-30T15:41:31.406Z,82.59
2017-07-30T15:42:53.939Z,82.78
2017-07-30T15:44:16.380Z,82.59
2017-07-30T15:45:38.554Z,81.66
2017-07-30T15:47:01.105Z,81.12
2017-07-30T15:48:23.681Z,79.61
2017-07-30T15:49:46.529Z,78.25
2017-07-30T15:51:08.721Z,76.44
2017-07-30T15:52:30.303Z,76.11
2017-07-30T15:53:52.142Z,77.18
2017-07-30T15:55:14.720Z,77.34
2017-07-30T15:56:37.763Z,77.69
2017-07-30T15:58:00.299Z,79.53
2017-07-30T15:59:22.815Z,80.55
2017-07-30T16:00:45.305Z,81.33
2017-07-30T16:02:06.547Z,79.49
2017-07-30T16:03:28.729Z,79.1
2017-07-30T16:04:51.008Z,79.74
2017-07-30T16:06:13.528Z,80.71
2017-07-30T16:07:35.700Z,80.52
2017-07-30T16:08:57.878Z,81.2
2017-07-30T16:10:20.078Z,81.87
2017-07-30T16:11:43.010Z,80.13
2017-07-30T16:13:05.211Z,78.81
2017-07-30T16:14:27.708Z,80.65
2017-07-30T16:15:49.902Z,79.78
2017-07-30T16:17:12.446Z,81.33
2017-07-30T16:18:35.004Z,82.75
2017-07-30T16:19:57.206Z,82.6
2017-07-30T16:21:19.736Z,84.89
2017-07-30T16:22:42.470Z,88.47
2017-07-30T16:24:04.976Z,89.88
2017-07-30T16:25:27.496Z,91.82
2017-07-30T16:26:50.156Z,91.28
2017-07-30T16:28:13.069Z,92.54
2017-07-30T16:29:35.553Z,94.09
2017-07-30T16:30:57.567Z,93.37
2017-07-30T16:32:20.090Z,93.85
2017-07-30T16:33:42.665Z,94.48
2017-07-30T16:35:04.924Z,95.83
2017-07-30T16:36:27.473Z,95.06
2017-07-30T16:37:50.071Z,95.06
2017-07-30T16:39:12.846Z,94.67
2017-07-30T16:40:35.358Z,95.06
2017-07-30T16:41:57.848Z,94.09
2017-07-30T16:43:19.781Z,94.19
2017-07-30T16:44:42.614Z,92.83
2017-07-30T16:46:05.139Z,91.09
2017-07-30T16:47:27.652Z,90.91
2017-07-30T16:48:50.120Z,92.55
2017-07-30T16:50:12.570Z,93.99
2017-07-30T16:51:34.785Z,94.77
2017-07-30T16:52:57.131Z,93.8
2017-07-30T16:54:19.316Z,94.43
2017-07-30T16:55:42.158Z,95.3
2017-07-30T16:57:04.320Z,94.43
2017-07-30T16:58:26.524Z,94.24
2017-07-30T16:59:48.782Z,94.34
2017-07-30T17:01:10.962Z,94.48
2017-07-30T17:02:33.509Z,94.77
2017-07-30T17:03:56.029Z,95.3
2017-07-30T17:05:18.209Z,96.17
2017-07-30T17:06:40.692Z,96.56
2017-07-30T17:08:02.881Z,96.84
2017-07-30T17:09:25.070Z,95.68
2017-07-30T17:10:47.577Z,95.5
2017-07-30T17:12:10.350Z,95.4
2017-07-30T17:13:32.542Z,94.77
2017-07-30T17:14:55.044Z,96.61
2017-07-30T17:16:17.268Z,96.51
2017-07-30T17:17:39.728Z,97.47
2017-07-30T17:19:01.974Z,97.42
2017-07-30T17:20:24.180Z,98.29
2017-07-30T17:21:46.710Z,98.68
2017-07-30T17:23:09.258Z,98.2
2017-07-30T17:24:31.198Z,99.35
2017-07-30T17:25:53.399Z,98.29
2017-07-30T17:27:15.988Z,98.49
2017-07-30T17:28:38.114Z,98.1
2017-07-30T17:30:00.738Z,98.39
2017-07-30T17:31:23.046Z,99.26
2017-07-30T17:32:45.224Z,98.97
2017-07-30T17:34:08.042Z,98.87
2017-07-30T17:35:30.241Z,98.39
2017-07-30T17:36:52.798Z,99.26
2017-07-30T17:38:14.778Z,99.74
2017-07-30T17:39:37.599Z,99.55
2017-07-30T17:40:59.858Z,98.49